Ana Sayfa
METAR-TAF:

METAR-TAF

Havaalanları :

Moree, Avustralya

Enlem: 29-29-56S, Boylam: 149-50-41E, yükseklik: 214 m

Güncel hava durumu gözlemi

Rapor saat 16:00 UTC de 27 dakika önce yapıldı.
Rüzgar batı/güneybatıdan 5 kt
Sıcaklık 14°C
Nem 36%
Basınç 1013 hPa
Görüş mesafesi: 9000 m

METAR: YMOR 141600Z AUTO 25005KT 9000 // NCD 14/M01 Q1013

Saat: 03:27 (16:27 UTC)


TAF: eksik

4.000'den fazla havaalanı için hava durumu gözlemleri ve tahminleri (METAR ve TAF raporları).

Kullanılabilir istasyonlar harita üzerinde sarı ve kırmızı noktalarla gösterilir.

İstasyonun adını görmek için fareyi noktanın üzerinde gezdirin.

Sonrasında hava gözlem ve tahminlerini görmek için tıklayın.

Haritayı değiştirmek için: yaklaştırmak için siyah artı işaretli yeşil düğmeye ve uzaklaştırmak için de eksi işaretli düğmeye hızla tıklayın; bitişik haritalar için yeşil okları kullanın.


METAR-TAF: